Tropical Cyclones
[Index]
Main Index Home Page Stock Weather Photos Extreme Storms Discussion Storm News and Storm Chasing Reports Tropical Cyclones / Hurricanes / Typhoons Weather Data and Links Wild Fires / Bushfires Weather Observation Techniques Weather Picture Catalogue Tornado Pictures and Reports Stock Video Footage and DVDs for sale
Season 1980-1981 Tropical Cyclone MAX Track Map
Season 1980-1981 Summaries: [BoM-AU] [JTWC-AU] [JTWC-SIO] [JTWC-SPAC] [JTWC-SH]
<<- Previous TC | BoM 1980-1981 Season | Next TC ->>

click for intensity scale information  Lat/long Grid: Show Hide

 Date Labels: Show Hide

Bureau of Meteorology Tropical Cyclone Data

Name: MAX
Number: 619 / 198081_12

09 Mar 1981 20:00 UTC to 19 Mar 1981 00:00 UTC

    date/time    lat    long    hPa   cat  kts
1981-03-09 20   11.6   135.1   1007                     
1981-03-09 23   11.6   135.0   1007                     
1981-03-10 02   11.6   134.8   1006                     
1981-03-10 05   11.5   134.5   1004                     
1981-03-10 08   11.4   134.3   1002                     
1981-03-10 11   11.4   134.1   1000                     
1981-03-10 14   11.4   133.7   1000                     
1981-03-10 17   11.5   133.4    998                     
1981-03-10 20   11.5   133.2    998                     
1981-03-10 23   11.5   133.0    998                     
1981-03-11 02   11.5   132.8    998                     
1981-03-11 05   11.7   132.5    998                     
1981-03-11 08   11.9   132.2    996                     
1981-03-11 11   11.9   131.8    994    1                
1981-03-11 14   11.9   131.5    994    1                
1981-03-11 17   12.2   131.0    993    1                
1981-03-11 20   12.3   130.8    993    1                
1981-03-11 23   12.4   130.5    992    1                
1981-03-12 02   12.4   130.2    990    1                
1981-03-12 05   12.6   129.7    985    2                
1981-03-12 08   12.8   129.3    985    2                
1981-03-12 11   12.8   128.8    985    2                
1981-03-12 14   12.9   128.3    980    2                
1981-03-12 17   12.9   127.8    980    2                
1981-03-12 18   12.9   127.6    980    2                
1981-03-12 20   12.9   127.3    980    2                
1981-03-12 23   12.9   126.9    975    2                
1981-03-13 05   12.8   125.9    975    2                
1981-03-13 08   12.7   125.5    975    2                
1981-03-13 11   12.5   125.3    970    3                
1981-03-13 12   12.3   125.3    969    3                
1981-03-13 14   12.4   125.0    970    3                
1981-03-13 17   12.2   124.5    967    3                
1981-03-13 18   12.2   124.5    967    3                
1981-03-14 00   12.1   123.4    965    3                
1981-03-14 06   12.0   122.5    963    3                
1981-03-14 12   12.0   121.4    962    3                
1981-03-14 18   12.1   120.1    961    3                
1981-03-15 00   12.4   118.9    960    3                
1981-03-15 01   12.5   118.8    960    3                
1981-03-15 06   12.7   118.1    961    3                
1981-03-15 12   13.0   117.2    962    3                
1981-03-15 18   13.4   116.4    963    3                
1981-03-16 00   13.8   115.4    965    3                
1981-03-16 06   14.4   114.5    967    3                
1981-03-16 12   14.8   113.5    969    3                
1981-03-16 18   15.2   112.5    972    2                
1981-03-17 00   15.4   111.5    975    2                
1981-03-17 06   15.6   110.4    978    2                
1981-03-17 12   15.6   109.2    982    2                
1981-03-17 18   15.7   107.7    987    1                
1981-03-18 00   16.0   106.2    995    1                
1981-03-18 06   16.3   104.4   1000                     
1981-03-18 12   16.6   102.6   1003                     
1981-03-18 18   16.8   100.7   1005                     
1981-03-19 00   17.0    98.8   1006                     
Winds are 10-min average.

Tropical cyclone tracks developed by Michael Bath using data from the Bureau of Meteorology and Google Maps.


[Australian Severe Weather index] [Copyright Notice] [Email Contacts] [Search This Site] [Privacy Policy]
Document: tropical_cyclone_max.htm Updated: 30 May 2013